THY3EN EDDW-EDDS
Flight info
| Callsign | THY3EN |
|---|---|
| Flight time | 0h 50m |
| Altitude | 35000 |
| Route | NIE2M NIE Z88 SAS DCT BERXO DCT SILWE DCT OSBIT P605 TOSTU T726 LBU |
| Aircraft | A320/M-SDE3FGHIRWY/LB1 |
Departure
| Time | 2026-05-06 16:42 |
|---|---|
| Airport | Bremen Airport (EDDW) |
Arrival
| Time | 2026-05-06 17:32 |
|---|---|
| Airport | Stuttgart Airport (EDDS) |
| Time | Latitude | Longitude | Altitude | Speed | Heading |
|---|---|---|---|---|---|
| 2026-05-06 16:19 | 53.05139 | 8.78600 | 22 ft | 0 kts | 47° |
| 2026-05-06 16:32 | 53.05126 | 8.78577 | 22 ft | 4 kts | 43° |
| 2026-05-06 16:33 | 53.05105 | 8.78548 | 22 ft | 4 kts | 33° |
| 2026-05-06 16:33 | 53.05082 | 8.78529 | 22 ft | 4 kts | 7° |
| 2026-05-06 16:33 | 53.05063 | 8.78534 | 22 ft | 1 kts | 319° |
| 2026-05-06 16:34 | 53.05060 | 8.78538 | 22 ft | 0 kts | 319° |
| 2026-05-06 16:38 | 53.05062 | 8.78535 | 22 ft | 1 kts | 319° |
| 2026-05-06 16:38 | 53.05075 | 8.78516 | 22 ft | 3 kts | 319° |
| 2026-05-06 16:38 | 53.05099 | 8.78482 | 22 ft | 6 kts | 318° |
| 2026-05-06 16:38 | 53.05130 | 8.78428 | 22 ft | 8 kts | 310° |
| 2026-05-06 16:39 | 53.05162 | 8.78343 | 22 ft | 10 kts | 296° |
| 2026-05-06 16:39 | 53.05187 | 8.78226 | 22 ft | 12 kts | 287° |
| 2026-05-06 16:39 | 53.05188 | 8.78081 | 22 ft | 14 kts | 255° |
| 2026-05-06 16:39 | 53.05135 | 8.77931 | 22 ft | 16 kts | 232° |
| 2026-05-06 16:40 | 53.05056 | 8.77779 | 22 ft | 19 kts | 228° |
| 2026-05-06 16:40 | 53.04962 | 8.77614 | 22 ft | 21 kts | 226° |
| 2026-05-06 16:40 | 53.04880 | 8.77505 | 22 ft | 14 kts | 210° |
| 2026-05-06 16:40 | 53.04780 | 8.77455 | 23 ft | 16 kts | 187° |
| 2026-05-06 16:41 | 53.04676 | 8.77509 | 21 ft | 18 kts | 137° |
| 2026-05-06 16:41 | 53.04661 | 8.77616 | 21 ft | 0 kts | 87° |
| 2026-05-06 16:41 | 53.04661 | 8.77622 | 21 ft | 1 kts | 87° |
| 2026-05-06 16:41 | 53.04664 | 8.77769 | 20 ft | 43 kts | 88° |
| 2026-05-06 16:42 | 53.04685 | 8.78695 | 22 ft | 114 kts | 88° |
| 2026-05-06 16:42 | 53.04725 | 8.80310 | 79 ft | 159 kts | 88° |
| 2026-05-06 16:42 | 53.04753 | 8.82175 | 622 ft | 167 kts | 89° |
| 2026-05-06 16:42 | 53.04806 | 8.84139 | 1250 ft | 172 kts | 85° |
| 2026-05-06 16:43 | 53.04762 | 8.86101 | 1957 ft | 171 kts | 106° |
| 2026-05-06 16:43 | 53.04161 | 8.87859 | 2293 ft | 185 kts | 128° |
| 2026-05-06 16:43 | 53.03248 | 8.89488 | 2593 ft | 202 kts | 143° |
| 2026-05-06 16:43 | 53.02014 | 8.90836 | 2880 ft | 223 kts | 147° |
| 2026-05-06 16:44 | 53.00672 | 8.92386 | 3201 ft | 247 kts | 144° |
| 2026-05-06 16:44 | 52.99219 | 8.94131 | 3752 ft | 265 kts | 144° |
| 2026-05-06 16:44 | 52.97731 | 8.95928 | 4329 ft | 270 kts | 144° |
| 2026-05-06 16:44 | 52.96202 | 8.97768 | 5194 ft | 274 kts | 144° |
| 2026-05-06 16:45 | 52.94648 | 8.99631 | 6029 ft | 277 kts | 144° |
| 2026-05-06 16:45 | 52.93071 | 9.01517 | 6832 ft | 281 kts | 144° |
| 2026-05-06 16:45 | 52.91468 | 9.03416 | 7597 ft | 285 kts | 145° |
| 2026-05-06 16:45 | 52.89843 | 9.05332 | 8327 ft | 289 kts | 145° |
| 2026-05-06 16:46 | 52.88194 | 9.07271 | 9035 ft | 293 kts | 145° |
| 2026-05-06 16:46 | 52.86523 | 9.09233 | 9721 ft | 296 kts | 145° |
| 2026-05-06 16:46 | 52.84826 | 9.11224 | 10263 ft | 305 kts | 145° |
| 2026-05-06 16:46 | 52.83061 | 9.13297 | 10393 ft | 326 kts | 145° |
| 2026-05-06 16:47 | 52.81159 | 9.15529 | 10657 ft | 340 kts | 145° |
| 2026-05-06 16:47 | 52.79210 | 9.17812 | 11154 ft | 346 kts | 145° |
| 2026-05-06 16:47 | 52.77240 | 9.20121 | 11687 ft | 349 kts | 145° |
| 2026-05-06 16:47 | 52.75246 | 9.22450 | 12212 ft | 353 kts | 145° |
| 2026-05-06 16:48 | 52.73234 | 9.24794 | 12715 ft | 356 kts | 145° |
| 2026-05-06 16:48 | 52.71204 | 9.27160 | 13202 ft | 359 kts | 145° |
| 2026-05-06 16:48 | 52.69159 | 9.29546 | 13661 ft | 362 kts | 145° |
| 2026-05-06 16:48 | 52.67099 | 9.31948 | 14107 ft | 365 kts | 145° |
| 2026-05-06 16:49 | 52.65017 | 9.34371 | 14543 ft | 367 kts | 145° |
| 2026-05-06 16:49 | 52.62950 | 9.36773 | 14959 ft | 370 kts | 145° |
| 2026-05-06 16:49 | 52.60883 | 9.39322 | 15367 ft | 373 kts | 142° |
| 2026-05-06 16:49 | 52.58866 | 9.42034 | 15765 ft | 376 kts | 140° |
| 2026-05-06 16:50 | 52.56871 | 9.44840 | 16149 ft | 378 kts | 139° |
| 2026-05-06 16:50 | 52.54878 | 9.47681 | 16523 ft | 381 kts | 139° |
| 2026-05-06 16:50 | 52.52865 | 9.50536 | 16890 ft | 383 kts | 140° |
| 2026-05-06 16:50 | 52.50832 | 9.53385 | 17247 ft | 386 kts | 140° |
| 2026-05-06 16:51 | 52.48773 | 9.56236 | 17599 ft | 388 kts | 140° |
| 2026-05-06 16:51 | 52.46695 | 9.59086 | 17938 ft | 391 kts | 141° |
| 2026-05-06 16:51 | 52.44628 | 9.61902 | 18263 ft | 393 kts | 141° |
| 2026-05-06 16:51 | 52.42518 | 9.64769 | 18580 ft | 395 kts | 141° |
| 2026-05-06 16:52 | 52.40396 | 9.67646 | 18895 ft | 397 kts | 141° |
| 2026-05-06 16:52 | 52.38264 | 9.70536 | 19201 ft | 399 kts | 141° |
| 2026-05-06 16:52 | 52.36122 | 9.73445 | 19498 ft | 402 kts | 141° |
| 2026-05-06 16:52 | 52.33967 | 9.76377 | 19798 ft | 404 kts | 141° |
| 2026-05-06 16:53 | 52.31806 | 9.79313 | 20088 ft | 406 kts | 141° |
| 2026-05-06 16:53 | 52.29629 | 9.82267 | 20374 ft | 408 kts | 141° |
| 2026-05-06 16:53 | 52.27390 | 9.85022 | 20636 ft | 409 kts | 149° |
| 2026-05-06 16:53 | 52.24830 | 9.87053 | 20897 ft | 411 kts | 161° |
| 2026-05-06 16:54 | 52.22059 | 9.88190 | 21150 ft | 412 kts | 172° |
| 2026-05-06 16:54 | 52.19195 | 9.88419 | 21395 ft | 413 kts | 180° |
| 2026-05-06 16:54 | 52.16312 | 9.88398 | 21633 ft | 415 kts | 180° |
| 2026-05-06 16:54 | 52.13412 | 9.88387 | 21871 ft | 417 kts | 180° |
| 2026-05-06 16:55 | 52.10507 | 9.88383 | 22099 ft | 419 kts | 180° |
| 2026-05-06 16:55 | 52.07586 | 9.88382 | 22319 ft | 421 kts | 180° |
| 2026-05-06 16:55 | 52.04693 | 9.88382 | 22534 ft | 422 kts | 180° |
| 2026-05-06 16:55 | 52.01747 | 9.88381 | 22746 ft | 424 kts | 180° |
| 2026-05-06 16:56 | 51.98792 | 9.88375 | 22950 ft | 425 kts | 180° |
| 2026-05-06 16:56 | 51.95830 | 9.88363 | 23149 ft | 427 kts | 180° |
| 2026-05-06 16:56 | 51.92852 | 9.88353 | 23338 ft | 428 kts | 180° |
| 2026-05-06 16:56 | 51.89866 | 9.88344 | 23523 ft | 430 kts | 180° |
| 2026-05-06 16:57 | 51.86870 | 9.88338 | 23706 ft | 431 kts | 180° |
| 2026-05-06 16:57 | 51.83867 | 9.88332 | 23873 ft | 433 kts | 180° |
| 2026-05-06 16:57 | 51.80850 | 9.88325 | 24035 ft | 434 kts | 180° |
| 2026-05-06 16:57 | 51.77868 | 9.88322 | 24192 ft | 435 kts | 180° |
| 2026-05-06 16:58 | 51.74833 | 9.88322 | 24343 ft | 436 kts | 180° |
| 2026-05-06 16:58 | 51.71793 | 9.88322 | 24486 ft | 438 kts | 180° |
| 2026-05-06 16:58 | 51.68744 | 9.88318 | 24623 ft | 439 kts | 180° |
| 2026-05-06 16:58 | 51.65689 | 9.88309 | 24751 ft | 440 kts | 180° |
| 2026-05-06 16:59 | 51.62627 | 9.88301 | 24876 ft | 441 kts | 180° |
| 2026-05-06 16:59 | 51.59556 | 9.88292 | 25002 ft | 441 kts | 180° |
| 2026-05-06 16:59 | 51.56486 | 9.88283 | 25127 ft | 442 kts | 180° |
| 2026-05-06 16:59 | 51.53452 | 9.88276 | 25251 ft | 442 kts | 180° |
| 2026-05-06 17:00 | 51.50373 | 9.88272 | 25375 ft | 443 kts | 180° |
| 2026-05-06 17:00 | 51.47292 | 9.88265 | 25502 ft | 443 kts | 180° |
| 2026-05-06 17:00 | 51.44212 | 9.88256 | 25627 ft | 443 kts | 180° |
| 2026-05-06 17:00 | 51.41130 | 9.88248 | 25748 ft | 443 kts | 180° |
| 2026-05-06 17:01 | 51.38046 | 9.88244 | 25874 ft | 443 kts | 180° |
| 2026-05-06 17:01 | 51.34960 | 9.88242 | 25999 ft | 443 kts | 180° |
| 2026-05-06 17:01 | 51.31876 | 9.88240 | 26123 ft | 443 kts | 180° |
| 2026-05-06 17:01 | 51.28788 | 9.88235 | 26248 ft | 443 kts | 180° |
| 2026-05-06 17:02 | 51.25746 | 9.88226 | 26371 ft | 443 kts | 180° |
| 2026-05-06 17:02 | 51.22664 | 9.88216 | 26496 ft | 443 kts | 180° |
| 2026-05-06 17:02 | 51.19581 | 9.88119 | 26623 ft | 443 kts | 182° |
| 2026-05-06 17:02 | 51.16500 | 9.87894 | 26746 ft | 443 kts | 183° |
| 2026-05-06 17:03 | 51.13424 | 9.87588 | 26871 ft | 443 kts | 184° |
| 2026-05-06 17:03 | 51.10349 | 9.87251 | 26996 ft | 443 kts | 184° |
| 2026-05-06 17:03 | 51.07272 | 9.86917 | 27121 ft | 443 kts | 184° |
| 2026-05-06 17:03 | 51.04197 | 9.86604 | 27245 ft | 443 kts | 184° |
| 2026-05-06 17:04 | 51.01162 | 9.86316 | 27369 ft | 443 kts | 184° |
| 2026-05-06 17:04 | 50.98083 | 9.86047 | 27494 ft | 443 kts | 183° |
| 2026-05-06 17:04 | 50.95006 | 9.85789 | 27619 ft | 443 kts | 183° |
| 2026-05-06 17:04 | 50.91929 | 9.85534 | 27744 ft | 443 kts | 183° |
| 2026-05-06 17:05 | 50.88853 | 9.85279 | 27869 ft | 443 kts | 183° |
| 2026-05-06 17:05 | 50.85776 | 9.85023 | 27994 ft | 443 kts | 183° |
| 2026-05-06 17:05 | 50.82699 | 9.84761 | 28119 ft | 443 kts | 183° |
| 2026-05-06 17:05 | 50.79622 | 9.84496 | 28244 ft | 443 kts | 183° |
| 2026-05-06 17:06 | 50.76592 | 9.84231 | 28367 ft | 443 kts | 183° |
| 2026-05-06 17:06 | 50.73511 | 9.83958 | 28492 ft | 443 kts | 183° |
| 2026-05-06 17:06 | 50.70438 | 9.83687 | 28617 ft | 443 kts | 183° |
| 2026-05-06 17:06 | 50.67364 | 9.83418 | 28741 ft | 443 kts | 183° |
| 2026-05-06 17:07 | 50.64289 | 9.83153 | 28866 ft | 443 kts | 183° |
| 2026-05-06 17:07 | 50.61209 | 9.82891 | 28990 ft | 443 kts | 183° |
| 2026-05-06 17:07 | 50.58133 | 9.82630 | 29115 ft | 443 kts | 183° |
| 2026-05-06 17:07 | 50.55068 | 9.82376 | 29240 ft | 443 kts | 183° |
| 2026-05-06 17:08 | 50.52023 | 9.82124 | 29368 ft | 443 kts | 183° |
| 2026-05-06 17:08 | 50.48945 | 9.81864 | 29493 ft | 443 kts | 183° |
| 2026-05-06 17:08 | 50.45870 | 9.81601 | 29618 ft | 442 kts | 183° |
| 2026-05-06 17:08 | 50.42800 | 9.81337 | 29742 ft | 442 kts | 183° |
| 2026-05-06 17:09 | 50.39725 | 9.81071 | 29867 ft | 442 kts | 183° |
| 2026-05-06 17:09 | 50.36954 | 9.80833 | 29980 ft | 442 kts | 183° |
| 2026-05-06 17:09 | 50.33833 | 9.80567 | 30106 ft | 442 kts | 183° |
| 2026-05-06 17:09 | 50.30764 | 9.80310 | 30233 ft | 442 kts | 183° |
| 2026-05-06 17:10 | 50.27735 | 9.80057 | 30356 ft | 442 kts | 183° |
| 2026-05-06 17:10 | 50.24668 | 9.79800 | 30480 ft | 442 kts | 183° |
| 2026-05-06 17:10 | 50.21616 | 9.79541 | 30920 ft | 433 kts | 185° |
| 2026-05-06 17:10 | 50.18680 | 9.79296 | 31973 ft | 414 kts | 185° |
| 2026-05-06 17:11 | 50.15842 | 9.79061 | 32725 ft | 404 kts | 186° |
| 2026-05-06 17:11 | 50.13066 | 9.78830 | 33364 ft | 397 kts | 187° |
| 2026-05-06 17:11 | 50.10300 | 9.78596 | 32824 ft | 401 kts | 187° |
| 2026-05-06 17:11 | 50.07509 | 9.78358 | 32128 ft | 402 kts | 186° |
| 2026-05-06 17:12 | 50.04708 | 9.78446 | 31563 ft | 402 kts | 181° |
| 2026-05-06 17:12 | 50.01974 | 9.78622 | 30974 ft | 395 kts | 181° |
| 2026-05-06 17:12 | 49.99243 | 9.78804 | 30086 ft | 390 kts | 180° |
| 2026-05-06 17:12 | 49.96556 | 9.78985 | 29347 ft | 383 kts | 180° |
| 2026-05-06 17:13 | 49.93931 | 9.79158 | 28900 ft | 373 kts | 180° |
| 2026-05-06 17:13 | 49.91367 | 9.79322 | 28469 ft | 364 kts | 180° |
| 2026-05-06 17:13 | 49.88859 | 9.79480 | 28053 ft | 357 kts | 180° |
| 2026-05-06 17:13 | 49.86404 | 9.79633 | 27654 ft | 350 kts | 180° |
| 2026-05-06 17:14 | 49.83993 | 9.79787 | 27260 ft | 343 kts | 180° |
| 2026-05-06 17:14 | 49.81664 | 9.79942 | 26889 ft | 336 kts | 180° |
| 2026-05-06 17:14 | 49.79350 | 9.80095 | 26506 ft | 329 kts | 180° |
| 2026-05-06 17:14 | 49.77086 | 9.80239 | 26141 ft | 323 kts | 180° |
| 2026-05-06 17:15 | 49.74840 | 9.80379 | 25781 ft | 323 kts | 181° |
| 2026-05-06 17:15 | 49.72613 | 9.80194 | 25683 ft | 321 kts | 188° |
| 2026-05-06 17:15 | 49.70387 | 9.79844 | 25613 ft | 322 kts | 188° |
| 2026-05-06 17:15 | 49.68157 | 9.79481 | 25464 ft | 323 kts | 188° |
| 2026-05-06 17:16 | 49.65891 | 9.79106 | 24610 ft | 331 kts | 188° |
| 2026-05-06 17:16 | 49.63596 | 9.78722 | 23729 ft | 333 kts | 188° |
| 2026-05-06 17:16 | 49.61316 | 9.78341 | 22850 ft | 335 kts | 188° |
| 2026-05-06 17:16 | 49.58992 | 9.77958 | 21957 ft | 337 kts | 188° |
| 2026-05-06 17:17 | 49.56661 | 9.77578 | 21058 ft | 338 kts | 188° |
| 2026-05-06 17:17 | 49.54322 | 9.77201 | 20166 ft | 338 kts | 188° |
| 2026-05-06 17:17 | 49.51983 | 9.76825 | 19266 ft | 337 kts | 188° |
| 2026-05-06 17:17 | 49.49652 | 9.76451 | 18369 ft | 336 kts | 188° |
| 2026-05-06 17:18 | 49.47330 | 9.76078 | 17524 ft | 334 kts | 188° |
| 2026-05-06 17:18 | 49.45058 | 9.75712 | 17056 ft | 321 kts | 188° |
| 2026-05-06 17:18 | 49.42883 | 9.75358 | 16660 ft | 308 kts | 188° |
| 2026-05-06 17:18 | 49.40767 | 9.75012 | 16286 ft | 305 kts | 188° |
| 2026-05-06 17:19 | 49.38686 | 9.74672 | 15921 ft | 304 kts | 188° |
| 2026-05-06 17:19 | 49.36591 | 9.74332 | 15549 ft | 302 kts | 188° |
| 2026-05-06 17:19 | 49.34504 | 9.73994 | 15178 ft | 301 kts | 188° |
| 2026-05-06 17:19 | 49.32423 | 9.73659 | 14852 ft | 299 kts | 188° |
| 2026-05-06 17:20 | 49.30341 | 9.73323 | 14808 ft | 304 kts | 188° |
| 2026-05-06 17:20 | 49.28228 | 9.72980 | 14813 ft | 306 kts | 188° |
| 2026-05-06 17:20 | 49.26100 | 9.72633 | 14312 ft | 312 kts | 188° |
| 2026-05-06 17:20 | 49.23901 | 9.72275 | 13602 ft | 321 kts | 188° |
| 2026-05-06 17:21 | 49.21674 | 9.71919 | 13089 ft | 322 kts | 187° |
| 2026-05-06 17:21 | 49.19475 | 9.71570 | 12595 ft | 322 kts | 187° |
| 2026-05-06 17:21 | 49.17249 | 9.71215 | 12178 ft | 320 kts | 187° |
| 2026-05-06 17:21 | 49.15036 | 9.70860 | 11700 ft | 319 kts | 187° |
| 2026-05-06 17:22 | 49.12835 | 9.70507 | 11313 ft | 317 kts | 187° |
| 2026-05-06 17:22 | 49.10657 | 9.70160 | 10963 ft | 313 kts | 187° |
| 2026-05-06 17:22 | 49.08538 | 9.69822 | 10799 ft | 298 kts | 187° |
| 2026-05-06 17:22 | 49.06515 | 9.69501 | 10357 ft | 287 kts | 188° |
| 2026-05-06 17:23 | 49.04714 | 9.69215 | 10024 ft | 277 kts | 188° |
| 2026-05-06 17:23 | 49.02835 | 9.68921 | 9681 ft | 266 kts | 188° |
| 2026-05-06 17:23 | 49.01023 | 9.68634 | 9357 ft | 260 kts | 188° |
| 2026-05-06 17:23 | 48.99220 | 9.68343 | 9034 ft | 260 kts | 188° |
| 2026-05-06 17:24 | 48.97446 | 9.68059 | 8708 ft | 260 kts | 188° |
| 2026-05-06 17:24 | 48.95628 | 9.67620 | 8380 ft | 271 kts | 199° |
| 2026-05-06 17:24 | 48.93825 | 9.66637 | 7963 ft | 278 kts | 204° |
| 2026-05-06 17:24 | 48.92036 | 9.65562 | 7532 ft | 274 kts | 204° |
| 2026-05-06 17:25 | 48.90273 | 9.64502 | 7109 ft | 271 kts | 204° |
| 2026-05-06 17:25 | 48.88526 | 9.63469 | 6682 ft | 268 kts | 204° |
| 2026-05-06 17:25 | 48.86791 | 9.62459 | 6257 ft | 266 kts | 204° |
| 2026-05-06 17:25 | 48.85069 | 9.61467 | 5838 ft | 264 kts | 204° |
| 2026-05-06 17:26 | 48.83362 | 9.60495 | 5403 ft | 262 kts | 204° |
| 2026-05-06 17:26 | 48.81687 | 9.59541 | 4986 ft | 257 kts | 204° |
| 2026-05-06 17:26 | 48.80049 | 9.58586 | 4603 ft | 247 kts | 207° |
| 2026-05-06 17:26 | 48.78569 | 9.57393 | 4229 ft | 236 kts | 213° |
| 2026-05-06 17:27 | 48.77197 | 9.56148 | 4001 ft | 221 kts | 214° |
| 2026-05-06 17:27 | 48.75925 | 9.54949 | 4003 ft | 210 kts | 220° |
| 2026-05-06 17:27 | 48.74967 | 9.53361 | 3999 ft | 203 kts | 241° |
| 2026-05-06 17:27 | 48.74465 | 9.51396 | 4021 ft | 199 kts | 255° |
| 2026-05-06 17:28 | 48.74101 | 9.49434 | 4002 ft | 187 kts | 254° |
| 2026-05-06 17:28 | 48.73755 | 9.47570 | 3989 ft | 182 kts | 254° |
| 2026-05-06 17:28 | 48.73417 | 9.45766 | 3946 ft | 179 kts | 254° |
| 2026-05-06 17:28 | 48.73078 | 9.43946 | 3786 ft | 179 kts | 254° |
| 2026-05-06 17:29 | 48.72742 | 9.42152 | 3562 ft | 176 kts | 254° |
| 2026-05-06 17:29 | 48.72415 | 9.40405 | 3357 ft | 171 kts | 254° |
| 2026-05-06 17:29 | 48.72094 | 9.38692 | 3121 ft | 168 kts | 254° |
| 2026-05-06 17:29 | 48.71776 | 9.36998 | 2899 ft | 166 kts | 254° |
| 2026-05-06 17:30 | 48.71471 | 9.35370 | 2702 ft | 152 kts | 254° |
| 2026-05-06 17:30 | 48.71196 | 9.33912 | 2501 ft | 143 kts | 254° |
| 2026-05-06 17:30 | 48.70926 | 9.32478 | 2310 ft | 142 kts | 254° |
| 2026-05-06 17:30 | 48.70656 | 9.31042 | 2127 ft | 142 kts | 254° |
| 2026-05-06 17:31 | 48.70394 | 9.29629 | 1938 ft | 141 kts | 254° |
| 2026-05-06 17:31 | 48.70128 | 9.28201 | 1774 ft | 141 kts | 254° |
| 2026-05-06 17:31 | 48.69858 | 9.26774 | 1614 ft | 141 kts | 254° |
| 2026-05-06 17:31 | 48.69585 | 9.25353 | 1463 ft | 141 kts | 253° |
| 2026-05-06 17:32 | 48.69312 | 9.23929 | 1317 ft | 141 kts | 253° |
| 2026-05-06 17:32 | 48.69063 | 9.22610 | 1285 ft | 107 kts | 256° |
| 2026-05-06 17:32 | 48.68941 | 9.21942 | 1288 ft | 35 kts | 254° |
| 2026-05-06 17:32 | 48.68961 | 9.21623 | 1285 ft | 17 kts | 285° |
| 2026-05-06 17:33 | 48.68978 | 9.21533 | 1285 ft | 4 kts | 285° |
| 2026-05-06 17:33 | 48.68984 | 9.21500 | 1285 ft | 0 kts | 285° |
| 2026-05-06 17:33 | 48.68984 | 9.21499 | 1285 ft | 0 kts | 285° |
| 2026-05-06 17:33 | 48.68986 | 9.21489 | 1285 ft | 2 kts | 285° |
| 2026-05-06 17:34 | 48.68989 | 9.21469 | 1285 ft | 3 kts | 285° |
| 2026-05-06 17:34 | 48.68995 | 9.21437 | 1289 ft | 4 kts | 283° |
| 2026-05-06 17:34 | 48.69000 | 9.21382 | 1287 ft | 10 kts | 274° |
| 2026-05-06 17:34 | 48.68989 | 9.21263 | 1288 ft | 12 kts | 257° |
| 2026-05-06 17:35 | 48.68964 | 9.21134 | 1287 ft | 13 kts | 252° |
| 2026-05-06 17:35 | 48.68934 | 9.20993 | 1289 ft | 15 kts | 252° |
| 2026-05-06 17:35 | 48.68903 | 9.20838 | 1289 ft | 16 kts | 254° |
| 2026-05-06 17:36 | 48.68840 | 9.20491 | 1289 ft | 18 kts | 255° |
| 2026-05-06 17:36 | 48.68804 | 9.20302 | 1285 ft | 19 kts | 253° |
| 2026-05-06 17:36 | 48.68767 | 9.20111 | 1289 ft | 16 kts | 254° |
| 2026-05-06 17:36 | 48.68773 | 9.19979 | 1289 ft | 11 kts | 302° |
| 2026-05-06 17:37 | 48.68835 | 9.19894 | 1287 ft | 13 kts | 330° |
| 2026-05-06 17:37 | 48.68883 | 9.19802 | 1288 ft | 13 kts | 264° |
| 2026-05-06 17:37 | 48.68864 | 9.19689 | 1288 ft | 11 kts | 252° |
| 2026-05-06 17:37 | 48.68843 | 9.19659 | 1287 ft | 4 kts | 195° |
| 2026-05-06 17:38 | 48.68812 | 9.19668 | 1288 ft | 5 kts | 163° |
| 2026-05-06 17:38 | 48.68797 | 9.19675 | 1285 ft | 0 kts | 162° |